Campiña-No se requiere un especial cuidado respecto a la situación meteorológica.   -   No hay avisos

Informes METAR

 

LEZL - Sevilla, Spain
Distancia de la estación: ENE 8km
Actualización: 03/06/2020 09:30
Poco nuboso
Poco nuboso
 Viento de variable
Viento: variable 4 km/h
Temperatura: 20°C
Rocío: 16°C
Humedad: 78%
Barómetro: 1013 hPa
Nubes: Poco nuboso
Visibilidad: 10 km
Detalles de las nubes: Poco nuboso 457 m
2020/06/03 07:30 LEZL 030730Z VRB02KT 9999 FEW015 20/16 Q1013 NOSIG
LEMO - Morón, Spain
Distancia de la estación: SE 43km
Actualización: 03/06/2020 09:00
Despejado
Despejado
 Viento de S
Viento: S 13 km/h
Temperatura: 19°C
Rocío: 15°C
Humedad: 78%
Barómetro: 1013 hPa
Resumen: Despejado
Visibilidad: mayor de 10 km
2020/06/03 07:00 LEMO 030700Z 17007KT CAVOK 19/15 Q1013 NOSIG
LEJR - Jeréz, Spain
Distancia de la estación: S 71km
Actualización: 03/06/2020 09:30
Poco nuboso
Poco nuboso
 Viento de variable
Viento: variable 4 km/h
Temperatura: 21°C
Rocío: 17°C
Humedad: 78%
Barómetro: 1013 hPa
Nubes: Poco nuboso
Visibilidad: 10 km
Detalles de las nubes: Poco nuboso 305 m
2020/06/03 07:30 LEJR 030730Z VRB02KT 9999 FEW010 21/17 Q1013
 
LERT - Rota, Spain
Distancia de la estación: SSO 89km
Actualización: 03/06/2020 09:00
Despejado
Despejado
 Viento de O
Viento: O 6 km/h
Temperatura: 21°C
Rocío: 17°C
Humedad: 78%
Barómetro: 1013 hPa
Resumen: Despejado
Visibilidad: mayor de 10 km
2020/06/03 07:00 LERT 030700Z 27003KT 240V310 CAVOK 21/17 Q1013 NOSIG
LEMG - Málaga, Spain
Distancia de la estación: ESE 157km
Actualización: 03/06/2020 09:30
Poco nuboso
Poco nuboso
 Viento de O
Viento: O 7 km/h
Temperatura: 22°C
Rocío: 16°C
Humedad: 69%
Barómetro: 1012 hPa
Nubes: Poco nuboso
Visibilidad: 10 km
Detalles de las nubes: Poco nuboso 2438 m
2020/06/03 07:30 LEMG 030730Z 28004KT 240V320 9999 FEW080 22/16 Q1012 NOSIG
LEBA - Córdoba, Spain
Distancia de la estación: ENE 115km
Actualización: 03/06/2020 09:30
Cubierto
Cubierto
 Viento de O
Viento: O 13 km/h
Temperatura: 18°C
Rocío: 16°C
Humedad: 88%
Barómetro: 1013 hPa
Nubes: Cubierto
Visibilidad: 10 km
Detalles de las nubes: Cubierto 274 m
2020/06/03 07:30 LEBA 030730Z AUTO 26007KT 220V300 9999 OVC009 18/16 Q1013
 
LEGR - Granada, Spain
Distancia de la estación: E 198km
Actualización: 03/06/2020 09:30
Despejado
Despejado
 Viento de variable
Viento: variable 2 km/h
Temperatura: 19°C
Rocío: 13°C
Humedad: 68%
Barómetro: 1014 hPa
Resumen: Despejado
Visibilidad: mayor de 10 km
2020/06/03 07:30 LEGR 030730Z AUTO VRB01KT CAVOK 19/13 Q1014
LEAM - Almería, Spain
Distancia de la estación: E 326km
Actualización: 03/06/2020 09:30
Muy nuboso
Muy nuboso
 Viento de S
Viento: S 7 km/h
Temperatura: 21°C
Rocío: 18°C
Humedad: 83%
Barómetro: 1012 hPa
Nubes: Muy nuboso
Visibilidad: 10 km
Detalles de las nubes: Muy nuboso 335 m
2020/06/03 07:30 LEAM 030730Z AUTO 19004KT 150V260 9999 BKN011 21/18 Q1012
LEMD - Madrid/Barajas, Spain
Distancia de la estación: NNE 402km
Actualización: 03/06/2020 09:30
Despejado
Despejado
 Viento de SE
Viento: SE 6 km/h
Temperatura: 20°C
Rocío: 12°C
Humedad: 60%
Barómetro: 1012 hPa
Resumen: Despejado
Visibilidad: mayor de 10 km
2020/06/03 07:30 LEMD 030730Z 14003KT 080V190 CAVOK 20/12 Q1012 NOSIG
 
LEVD - Valladolid, Spain
Distancia de la estación: N 492km
Actualización: 03/06/2020 09:30
Cubierto
Cubierto
 Viento de SO
Viento: SO 11 km/h
Temperatura: 16°C
Rocío: 14°C
Humedad: 88%
Barómetro: 1013 hPa
Nubes: Cubierto
Visibilidad: 10 km
Detalles de las nubes: Cubierto 457 m
2020/06/03 07:30 LEVD 030730Z AUTO 23006KT 9999 OVC015 16/14 Q1013
LEBL - Barcelona, Spain
Distancia de la estación: NE 816km
Actualización: 03/06/2020 09:30
Poco nuboso
Poco nuboso
 Viento de SSO
Viento: SSO 13 km/h
Temperatura: 23°C
Rocío: 18°C
Humedad: 74%
Barómetro: 1010 hPa
Nubes: Poco nuboso
Visibilidad: 10 km
Detalles de las nubes: Poco nuboso 457 m
2020/06/03 07:30 LEBL 030730Z 21007KT 190V250 9999 FEW015 23/18 Q1010 NOSIG
LEVC - Valencia, Spain
Distancia de la estación: ENE 535km
Actualización: 03/06/2020 09:30
Despejado
Despejado
 Viento de calm
Viento: Calma
Temperatura: 23°C
Rocío: 17°C
Humedad: 69%
Barómetro: 1010 hPa
Resumen: Despejado
Visibilidad: mayor de 10 km
2020/06/03 07:30 LEVC 030730Z 00000KT CAVOK 23/17 Q1010 NOSIG